Time;durP1;ratioP1;P1;durP2;ratioP2;P2;SDS_P1;SDS_P2;PMS_P1;PMS_P2;Temp;Humidity;BMP_temperature;BMP_pressure;BME280_temperature;BME280_humidity;BME280_pressure;Samples;Min_cycle;Max_cycle;Signal;HPM_P1;HPM_P2
2021/05/07 00:00:25;;;;;;;4.12;2.00;;;;;;;15.16;38.40;99153.69;4457124;32;34594;-86
2021/05/07 00:02:53;;;;;;;5.30;2.20;;;;;;;15.12;38.42;99141.56;4471426;32;33825;-86
2021/05/07 00:05:20;;;;;;;4.28;2.25;;;;;;;15.14;38.52;99145.00;4457170;32;34459;-86
2021/05/07 00:07:47;;;;;;;4.30;2.25;;;;;;;15.14;38.75;99148.47;4456992;32;34013;-86
2021/05/07 00:10:14;;;;;;;6.93;2.53;;;;;;;15.02;39.45;99145.34;4457387;32;33309;-86
2021/05/07 00:12:42;;;;;;;3.60;1.87;;;;;;;15.06;39.61;99142.59;4444418;32;33862;-86
2021/05/07 00:15:10;;;;;;;4.70;2.28;;;;;;;15.05;39.46;99134.81;4457084;32;34832;-86
2021/05/07 00:17:38;;;;;;;2.95;2.00;;;;;;;15.06;40.45;99132.13;4470936;32;34248;-86
2021/05/07 00:20:06;;;;;;;5.10;1.92;;;;;;;15.00;40.81;99131.44;4444170;32;34630;-86
2021/05/07 00:22:33;;;;;;;4.65;2.37;;;;;;;14.88;40.38;99125.63;4457114;32;33417;-86
2021/05/07 00:25:20;;;;;;;4.35;2.30;;;;;;;14.87;41.09;99126.56;4451043;32;33832;-86
2021/05/07 00:27:47;;;;;;;5.72;2.10;;;;;;;14.93;41.18;99128.12;4444832;32;35505;-86
2021/05/07 00:30:15;;;;;;;7.07;2.58;;;;;;;14.76;41.50;99133.00;4456979;32;33398;-86
2021/05/07 00:32:42;;;;;;;5.12;2.35;;;;;;;14.69;41.97;99129.66;4456786;32;33820;-86
2021/05/07 00:35:14;;;;;;;;;;;;;;;14.65;41.76;99125.41;4444755;32;33825;-86
2021/05/07 00:37:42;;;;;;;3.62;2.08;;;;;;;14.75;41.86;99102.47;4443826;32;34254;-86
2021/05/07 00:40:09;;;;;;;7.65;2.67;;;;;;;14.79;41.80;99109.31;4470762;32;33491;-86
2021/05/07 00:42:37;;;;;;;4.07;2.58;;;;;;;14.77;42.02;99117.22;4443859;32;33374;-86
2021/05/07 00:45:06;;;;;;;5.03;2.65;;;;;;;14.63;41.83;99110.66;4470725;32;35733;-86
2021/05/07 00:47:50;;;;;;;5.20;2.87;;;;;;;14.60;42.00;99108.13;4457094;32;34355;-86
2021/05/07 00:50:18;;;;;;;5.18;2.45;;;;;;;14.61;42.39;99105.47;4444135;32;33379;-86
2021/05/07 00:52:46;;;;;;;4.00;2.37;;;;;;;14.61;42.41;99096.75;4456522;32;35158;-86
2021/05/07 00:55:13;;;;;;;5.18;2.55;;;;;;;14.63;42.39;99097.56;4456688;32;34838;-86
2021/05/07 00:57:41;;;;;;;9.57;2.17;;;;;;;14.53;42.43;99099.59;4456957;32;33967;-86
2021/05/07 01:00:09;;;;;;;5.12;2.50;;;;;;;14.63;42.73;99100.19;4443992;32;33739;-86
2021/05/07 01:02:36;;;;;;;6.05;2.45;;;;;;;14.57;43.03;99098.59;4456596;32;34552;-86
2021/05/07 01:05:06;;;;;;;5.72;2.55;;;;;;;14.50;43.50;99104.06;4469915;32;34380;-86
2021/05/07 01:07:33;;;;;;;5.62;2.70;;;;;;;14.50;43.77;99104.06;4457132;32;33911;-86
2021/05/07 01:10:04;;;;;;;4.07;2.75;;;;;;;14.47;44.17;99099.75;4456836;32;34729;-86
2021/05/07 01:12:35;;;;;;;4.95;2.22;;;;;;;14.27;44.50;99108.09;4431359;32;33292;-86
2021/05/07 01:15:18;;;;;;;3.80;2.20;;;;;;;14.16;44.94;99099.69;4443851;32;35736;-86
2021/05/07 01:17:51;;;;;;;5.95;2.70;;;;;;;14.10;44.82;99086.75;4456503;32;33963;-86
2021/05/07 01:20:20;;;;;;;3.85;2.25;;;;;;;14.18;44.60;99087.41;4456560;32;33286;-86
2021/05/07 01:22:50;;;;;;;3.90;2.30;;;;;;;13.98;45.30;99083.56;4456674;32;33231;-86
2021/05/07 01:25:19;;;;;;;4.68;2.37;;;;;;;14.16;45.26;99094.44;4456354;32;35413;-86
2021/05/07 01:27:50;;;;;;;4.55;2.55;;;;;;;14.00;45.91;99094.87;4470324;32;34351;-87
2021/05/07 01:30:20;;;;;;;7.28;2.62;;;;;;;13.85;46.29;99093.50;4443771;32;33050;-86
2021/05/07 01:32:48;;;;;;;5.30;2.60;;;;;;;13.95;46.19;99094.13;4443737;32;34739;-86
2021/05/07 01:35:29;;;;;;;7.05;2.80;;;;;;;13.74;46.80;99100.72;4430932;32;34689;-86
2021/05/07 01:37:58;;;;;;;6.32;2.83;;;;;;;13.53;47.45;99099.47;4456390;32;35281;-87
2021/05/07 01:40:35;;;;;;;4.05;2.28;;;;;;;13.49;47.79;99102.19;4456588;32;35087;-86
2021/05/07 01:43:03;;;;;;;6.00;2.20;;;;;;;13.53;47.62;99093.37;4443884;32;35075;-86
2021/05/07 01:45:41;;;;;;;3.35;2.35;;;;;;;13.46;47.81;99092.66;4456374;32;35227;-86
2021/05/07 01:48:10;;;;;;;3.17;1.92;;;;;;;13.45;47.80;99095.34;4470552;32;34470;-86
2021/05/07 01:50:39;;;;;;;8.05;2.37;;;;;;;13.20;48.99;99099.38;4456584;32;33442;-86
2021/05/07 01:53:07;;;;;;;8.55;2.60;;;;;;;13.18;48.85;99093.31;4443381;32;34916;-86
2021/05/07 01:55:40;;;;;;;3.75;2.37;;;;;;;13.22;48.76;99087.13;4430825;32;34733;-86
2021/05/07 01:58:09;;;;;;;4.07;2.50;;;;;;;13.33;48.51;99091.25;4456238;32;33941;-86
2021/05/07 02:00:39;;;;;;;6.00;2.60;;;;;;;13.18;48.66;99085.50;4447525;32;34607;-86
2021/05/07 02:03:07;;;;;;;7.05;2.75;;;;;;;13.14;49.01;99083.84;4471934;32;33981;-86
2021/05/07 02:05:35;;;;;;;7.03;2.60;;;;;;;13.06;48.95;99093.59;4456563;32;34375;-87
2021/05/07 02:08:04;;;;;;;5.35;2.95;;;;;;;13.02;48.96;99102.34;4443500;32;34104;-87
2021/05/07 02:10:33;;;;;;;5.18;2.95;;;;;;;13.02;48.91;99094.50;4443693;32;35042;-86
2021/05/07 02:13:04;;;;;;;5.18;2.80;;;;;;;13.12;48.75;99088.25;4469921;32;34980;-86
2021/05/07 02:15:33;;;;;;;6.00;2.58;;;;;;;13.21;48.82;99088.03;4443056;32;34004;-86
2021/05/07 02:18:01;;;;;;;5.30;2.78;;;;;;;13.17;48.74;99097.69;4431540;32;34776;-86
2021/05/07 02:20:30;;;;;;;5.37;2.35;;;;;;;13.13;48.79;99105.59;4444888;32;33698;-86
2021/05/07 02:22:58;;;;;;;6.15;2.92;;;;;;;13.09;48.82;99093.53;4457855;32;33874;-86
2021/05/07 02:25:26;;;;;;;5.55;3.17;;;;;;;13.07;49.14;99087.47;4444968;32;34457;-86
2021/05/07 02:27:55;;;;;;;4.82;2.60;;;;;;;13.09;49.40;99083.94;4457987;32;33902;-86
2021/05/07 02:30:26;;;;;;;4.80;2.53;;;;;;;13.07;49.52;99085.75;4458111;32;34556;-86
2021/05/07 02:32:54;;;;;;;5.50;2.90;;;;;;;13.03;49.67;99080.56;4445370;32;33724;-86
2021/05/07 02:35:23;;;;;;;6.57;2.87;;;;;;;13.01;49.91;99085.81;4457944;32;35791;-86
2021/05/07 02:37:50;;;;;;;4.95;2.35;;;;;;;12.93;50.47;99080.75;4445282;32;33940;-86
2021/05/07 02:40:20;;;;;;;6.15;3.03;;;;;;;12.95;50.56;99087.69;4458121;32;34053;-86
2021/05/07 02:42:51;;;;;;;4.75;2.53;;;;;;;12.82;50.67;99080.13;4444830;32;33370;-85
2021/05/07 02:45:20;;;;;;;6.00;2.75;;;;;;;12.84;50.84;99088.78;4457831;32;34816;-86
2021/05/07 02:47:47;;;;;;;6.90;3.17;;;;;;;12.84;50.73;99087.91;4457985;32;34394;-86
2021/05/07 02:50:16;;;;;;;8.18;2.83;;;;;;;12.85;50.54;99095.72;4458083;32;34630;-86
2021/05/07 02:52:44;;;;;;;6.62;2.92;;;;;;;12.68;50.95;99089.97;4444957;32;33946;-86
2021/05/07 02:55:12;;;;;;;5.62;2.70;;;;;;;12.76;50.22;99090.69;4457965;32;34498;-86
2021/05/07 02:57:41;;;;;;;6.97;3.00;;;;;;;12.83;50.48;99091.44;4457617;32;33981;-86
2021/05/07 03:00:10;;;;;;;6.05;2.80;;;;;;;12.73;50.56;99085.53;4471998;32;34124;-86
2021/05/07 03:02:37;;;;;;;5.00;2.50;;;;;;;12.70;50.66;99063.84;4444846;32;35104;-86
2021/05/07 03:05:05;;;;;;;4.10;2.47;;;;;;;12.74;50.41;99066.38;4457741;32;35772;-86
2021/05/07 03:07:33;;;;;;;5.82;3.20;;;;;;;12.73;50.80;99061.19;4457672;32;33994;-86
2021/05/07 03:10:00;;;;;;;5.32;2.95;;;;;;;12.51;51.45;99060.75;4444549;32;32869;-86
2021/05/07 03:12:28;;;;;;;6.43;3.20;;;;;;;12.62;51.16;99061.38;4444808;32;34057;-86
2021/05/07 03:14:55;;;;;;;7.22;2.58;;;;;;;12.48;51.57;99068.63;4444442;32;34099;-86
2021/05/07 03:17:23;;;;;;;4.40;2.60;;;;;;;12.55;51.42;99057.19;4471347;32;34107;-86
2021/05/07 03:19:50;;;;;;;6.87;3.47;;;;;;;12.64;51.18;99054.41;4457387;32;34269;-86
2021/05/07 03:22:17;;;;;;;5.37;2.80;;;;;;;12.66;51.36;99052.62;4457545;32;33825;-86
2021/05/07 03:24:45;;;;;;;6.05;3.05;;;;;;;12.58;51.58;99051.91;4457371;32;36084;-86
2021/05/07 03:27:13;;;;;;;4.85;3.12;;;;;;;12.50;52.07;99056.44;4457546;32;34810;-86
2021/05/07 03:29:40;;;;;;;5.90;3.20;;;;;;;12.43;52.25;99056.59;4457496;32;33277;-86
2021/05/07 03:32:07;;;;;;;6.62;3.08;;;;;;;12.43;52.51;99053.97;4457416;32;33385;-86
2021/05/07 03:34:35;;;;;;;4.57;2.80;;;;;;;12.38;52.62;99046.25;4458381;32;34534;-85
2021/05/07 03:37:03;;;;;;;6.50;3.55;;;;;;;12.10;53.44;99040.69;4449360;32;33614;-86
2021/05/07 03:39:30;;;;;;;7.70;3.70;;;;;;;11.91;53.96;99044.50;4444759;32;33484;-86
2021/05/07 03:41:57;;;;;;;8.45;3.62;;;;;;;12.17;53.61;99051.88;4457379;32;34839;-86
2021/05/07 03:44:25;;;;;;;6.45;3.55;;;;;;;12.40;52.86;99044.47;4471358;32;34599;-86
2021/05/07 03:46:52;;;;;;;4.95;3.20;;;;;;;12.54;52.15;99042.44;4444270;32;34268;-86
2021/05/07 03:49:20;;;;;;;5.62;3.25;;;;;;;12.50;52.78;99038.19;4457459;32;33726;-86
2021/05/07 03:51:47;;;;;;;6.28;3.37;;;;;;;12.50;52.70;99048.63;4444416;32;33394;-86
2021/05/07 03:54:14;;;;;;;4.97;3.20;;;;;;;12.58;52.83;99054.53;4444685;32;34630;-86
2021/05/07 03:56:41;;;;;;;5.10;3.28;;;;;;;12.59;53.33;99053.66;4444395;32;33572;-86
2021/05/07 03:59:09;;;;;;;5.55;3.40;;;;;;;12.48;53.72;99060.81;4457336;32;33640;-86
2021/05/07 04:01:36;;;;;;;8.48;4.25;;;;;;;12.78;53.09;99065.44;4471321;32;33813;-86
2021/05/07 04:04:06;;;;;;;7.35;3.55;;;;;;;12.84;53.02;99067.91;4457347;32;34546;-86
2021/05/07 04:06:36;;;;;;;8.47;3.30;;;;;;;12.88;53.27;99079.97;4456823;32;33565;-85
2021/05/07 04:09:14;;;;;;;7.62;3.25;;;;;;;12.93;53.08;99085.13;4457097;32;33707;-86
2021/05/07 04:14:18;;;;;;;10.73;4.28;;;;;;;12.99;52.98;99092.81;4456676;32;35227;-86
2021/05/07 04:16:45;;;;;;;6.10;3.30;;;;;;;13.01;53.22;99088.44;4456748;32;34061;-85
2021/05/07 04:19:12;;;;;;;6.18;3.60;;;;;;;13.19;53.07;99092.44;4454013;32;33469;-86
2021/05/07 04:21:40;;;;;;;5.22;3.42;;;;;;;13.17;53.20;99091.63;4454414;32;34112;-85
2021/05/07 04:24:07;;;;;;;4.97;3.20;;;;;;;13.18;53.71;99093.31;4455940;32;34466;-87
2021/05/07 04:26:35;;;;;;;7.62;3.35;;;;;;;13.22;53.69;99097.56;4454656;32;34800;-87
2021/05/07 04:29:03;;;;;;;5.20;3.40;;;;;;;13.18;53.71;99099.41;4441673;32;32509;-86
2021/05/07 04:31:31;;;;;;;7.47;3.67;;;;;;;13.24;53.63;99101.03;4454347;32;33296;-86
2021/05/07 04:33:58;;;;;;;5.43;3.42;;;;;;;13.24;53.58;99114.94;4454152;32;34562;-86
2021/05/07 04:36:25;;;;;;;8.88;3.90;;;;;;;13.35;54.53;99125.16;4454477;32;34070;-87
2021/05/07 04:38:56;;;;;;;6.00;3.70;;;;;;;13.35;54.86;99117.31;4453821;32;33484;-87
2021/05/07 04:41:24;;;;;;;7.25;3.65;;;;;;;13.44;55.53;99124.94;4453733;32;35585;-87
2021/05/07 04:43:52;;;;;;;7.50;4.15;;;;;;;13.45;56.34;99129.28;4455428;32;34406;-87
2021/05/07 04:46:19;;;;;;;8.32;4.10;;;;;;;13.40;57.06;99136.38;4441462;32;34531;-87
2021/05/07 04:48:46;;;;;;;9.20;4.80;;;;;;;13.23;58.55;99143.69;4454200;32;34902;-87
2021/05/07 04:51:14;;;;;;;10.48;5.20;;;;;;;13.37;58.27;99146.87;4455583;32;33938;-87
2021/05/07 04:53:41;;;;;;;8.40;5.03;;;;;;;13.41;58.71;99144.16;4441553;32;35428;-87
2021/05/07 04:56:08;;;;;;;8.40;5.00;;;;;;;13.47;58.69;99151.00;4454603;32;34130;-87
2021/05/07 04:58:36;;;;;;;10.65;4.53;;;;;;;13.50;58.97;99140.50;4455612;32;33381;-88
2021/05/07 05:01:03;;;;;;;8.13;4.37;;;;;;;13.42;59.33;99145.03;4454352;32;34805;-88
2021/05/07 05:03:31;;;;;;;8.07;4.87;;;;;;;13.57;59.11;99144.69;4455947;32;34813;-88
2021/05/07 05:05:58;;;;;;;6.40;4.40;;;;;;;13.53;59.55;99141.28;4442426;32;34605;-88
2021/05/07 05:08:26;;;;;;;10.38;4.72;;;;;;;13.77;59.28;99146.81;4444074;32;33740;-87
2021/05/07 05:10:54;;;;;;;8.95;5.22;;;;;;;13.73;59.49;99151.28;4458536;32;34258;-87
2021/05/07 05:13:22;;;;;;;12.55;5.30;;;;;;;13.72;59.70;99154.78;4434448;32;34169;-87
2021/05/07 05:15:51;;;;;;;8.50;5.00;;;;;;;13.92;59.50;99157.81;4469459;32;34595;-88
2021/05/07 05:18:31;;;;;;;12.18;5.78;;;;;;;13.88;59.92;99152.69;4432565;32;33442;-87
2021/05/07 05:21:01;;;;;;;9.68;5.28;;;;;;;13.89;59.75;99152.63;4438799;32;33809;-87
2021/05/07 05:23:29;;;;;;;9.40;5.57;;;;;;;13.86;59.71;99152.69;4439771;32;34460;-87
2021/05/07 05:25:57;;;;;;;7.65;5.20;;;;;;;14.05;59.19;99137.44;4438728;32;34179;-87
2021/05/07 05:28:25;;;;;;;9.95;6.30;;;;;;;14.17;59.18;99148.44;4426057;32;32920;-87
2021/05/07 05:30:53;;;;;;;9.52;6.15;;;;;;;14.01;59.72;99148.88;4426408;32;33343;-87
2021/05/07 05:33:20;;;;;;;13.45;5.60;;;;;;;14.07;59.28;99146.13;4438955;32;35835;-88
2021/05/07 05:35:49;;;;;;;11.15;6.47;;;;;;;14.02;59.65;99159.31;4426229;32;34189;-87
2021/05/07 05:38:16;;;;;;;12.65;6.75;;;;;;;14.25;59.49;99150.88;4451727;32;33599;-88
2021/05/07 05:40:43;;;;;;;10.93;6.65;;;;;;;14.18;59.70;99144.94;4413760;32;33570;-87
2021/05/07 05:43:11;;;;;;;9.88;5.95;;;;;;;14.21;59.67;99147.47;4438681;32;34338;-89
2021/05/07 05:45:38;;;;;;;10.32;6.05;;;;;;;14.27;59.25;99149.09;4438864;32;34421;-87
2021/05/07 05:48:07;;;;;;;11.32;5.80;;;;;;;14.29;59.74;99149.91;4425921;32;32209;-88
2021/05/07 05:50:36;;;;;;;14.27;6.30;;;;;;;14.37;59.39;99158.44;4438339;32;34235;-88
2021/05/07 05:53:04;;;;;;;12.15;6.78;;;;;;;14.41;59.20;99148.75;4426145;32;33910;-88
2021/05/07 05:55:32;;;;;;;12.80;7.12;;;;;;;14.58;58.77;99147.44;4413682;32;33002;-88
2021/05/07 05:58:00;;;;;;;11.18;6.47;;;;;;;14.61;59.02;99164.81;4425906;32;32892;-88
2021/05/07 06:00:27;;;;;;;10.32;6.20;;;;;;;14.34;59.80;99158.53;4438488;32;34574;-88
2021/05/07 06:02:54;;;;;;;12.70;7.90;;;;;;;14.58;59.42;99146.56;4425454;32;34690;-88
2021/05/07 06:05:22;;;;;;;13.02;8.65;;;;;;;14.45;59.31;99155.66;4439036;32;33972;-88
2021/05/07 06:07:49;;;;;;;12.18;8.27;;;;;;;14.51;59.78;99155.47;4425718;32;33030;-88
2021/05/07 06:10:18;;;;;;;15.07;9.02;;;;;;;14.64;59.21;99155.09;4425705;32;34094;-88
2021/05/07 06:12:47;;;;;;;14.13;8.02;;;;;;;14.28;60.72;99150.81;4438504;32;34293;-88
2021/05/07 06:15:16;;;;;;;16.58;8.07;;;;;;;14.38;60.70;99172.41;4425414;32;33506;-88
2021/05/07 06:17:45;;;;;;;16.75;8.07;;;;;;;14.48;60.95;99189.56;4438171;32;33304;-88
2021/05/07 06:20:13;;;;;;;12.45;8.35;;;;;;;14.47;61.64;99203.56;4438043;32;34038;-88
2021/05/07 06:22:41;;;;;;;17.00;9.48;;;;;;;14.35;62.23;99209.09;4425454;32;34076;-88
2021/05/07 06:25:11;;;;;;;16.92;9.02;;;;;;;14.23;62.92;99216.31;4438101;32;34617;-88
2021/05/07 06:27:40;;;;;;;21.52;8.23;;;;;;;14.26;62.94;99221.44;4438329;32;34479;-88
2021/05/07 06:30:09;;;;;;;17.62;8.85;;;;;;;14.52;62.34;99218.25;4425635;32;34094;-87
2021/05/07 06:32:37;;;;;;;14.65;7.82;;;;;;;14.79;61.60;99198.34;4425600;32;34553;-88
2021/05/07 06:35:06;;;;;;;16.80;8.50;;;;;;;14.91;61.06;99200.63;4437951;32;35391;-88
2021/05/07 06:37:33;;;;;;;11.02;7.28;;;;;;;14.76;61.72;99201.06;4425147;32;32617;-88
2021/05/07 06:40:02;;;;;;;11.25;6.90;;;;;;;14.60;63.17;99197.09;4437696;32;33852;-88
2021/05/07 06:42:31;;;;;;;9.93;6.57;;;;;;;14.81;62.38;99194.78;4424743;32;34185;-88
2021/05/07 06:44:59;;;;;;;12.40;7.10;;;;;;;15.02;62.02;99193.34;4437523;32;35310;-88
2021/05/07 06:47:26;;;;;;;10.18;6.93;;;;;;;15.11;61.92;99190.47;4440828;32;33292;-88
2021/05/07 06:49:53;;;;;;;13.32;7.25;;;;;;;15.31;61.40;99189.88;4414908;32;33544;-89
2021/05/07 06:52:21;;;;;;;16.45;7.95;;;;;;;15.30;61.59;99186.44;4424884;32;33724;-87
2021/05/07 06:54:50;;;;;;;10.90;7.30;;;;;;;15.43;61.91;99187.78;4449352;32;34017;-86
2021/05/07 06:57:18;;;;;;;16.05;8.68;;;;;;;15.53;61.53;99191.03;4461333;32;33331;-88
2021/05/07 06:59:47;;;;;;;12.77;8.27;;;;;;;15.47;62.42;99201.69;4464534;32;33727;-88
2021/05/07 07:02:21;;;;;;;15.40;7.80;;;;;;;15.49;62.44;99216.47;4431412;32;34775;-87
2021/05/07 07:04:51;;;;;;;11.60;7.57;;;;;;;15.67;62.12;99220.31;4450920;32;34299;-87
2021/05/07 07:07:30;;;;;;;15.52;7.82;;;;;;;15.83;61.44;99220.72;4454596;32;34602;-87
2021/05/07 07:10:25;;;;;;;14.87;8.93;;;;;;;15.81;61.45;99214.66;4442450;32;34320;-87
2021/05/07 07:13:12;;;;;;;16.60;8.50;;;;;;;15.78;60.99;99215.63;4439576;32;36026;-81
2021/05/07 07:15:39;;;;;;;20.88;11.35;;;;;;;16.00;59.48;99211.41;4452500;32;34527;-82
2021/05/07 07:18:12;;;;;;;44.03;29.48;;;;;;;15.85;59.78;99209.28;4441247;32;34808;-81
2021/05/07 07:21:01;;;;;;;69.80;47.10;;;;;;;15.74;60.69;99208.72;4438207;32;34167;-82
2021/05/07 07:23:31;;;;;;;24.40;18.33;;;;;;;15.65;59.94;99213.38;4438013;32;34534;-81
2021/05/07 07:25:58;;;;;;;16.02;9.82;;;;;;;15.86;60.07;99217.97;4425846;32;34264;-82
2021/05/07 07:28:25;;;;;;;13.02;7.75;;;;;;;15.84;60.45;99217.16;4439476;32;34417;-82
2021/05/07 07:30:53;;;;;;;9.13;5.60;;;;;;;15.95;59.49;99225.59;4426183;32;34094;-82
2021/05/07 07:33:28;;;;;;;11.70;6.28;;;;;;;15.98;58.94;99228.97;4438970;32;35822;-82
2021/05/07 07:36:00;;;;;;;11.00;6.22;;;;;;;16.00;59.50;99229.75;4438813;32;34581;-81
2021/05/07 07:41:31;;;;;;;11.43;6.03;;;;;;;15.98;59.13;99228.97;4438353;32;35330;-81
2021/05/07 07:43:59;;;;;;;13.93;7.00;;;;;;;15.99;59.77;99240.31;4438529;32;34341;-81
2021/05/07 07:46:28;;;;;;;12.65;7.35;;;;;;;16.22;59.22;99228.19;4438305;32;34038;-81
2021/05/07 07:48:56;;;;;;;46.30;31.75;;;;;;;16.43;58.63;99236.28;4425687;32;33398;-81
2021/05/07 07:51:29;;;;;;;51.75;33.45;;;;;;;16.44;60.17;99235.38;4438246;32;34932;-82
2021/05/07 07:53:57;;;;;;;43.53;29.95;;;;;;;16.50;59.13;99233.41;4438170;32;34254;-81
2021/05/07 07:56:25;;;;;;;18.50;11.32;;;;;;;16.61;57.92;99228.69;4437622;32;34270;-79
2021/05/07 07:58:52;;;;;;;16.40;8.90;;;;;;;16.91;57.10;99232.91;4437604;32;33970;-85
2021/05/07 08:01:19;;;;;;;12.85;7.97;;;;;;;16.56;58.81;99232.38;4450783;32;34851;-82
2021/05/07 08:03:49;;;;;;;9.18;5.50;;;;;;;16.77;58.30;99236.91;4453363;32;35733;-83
2021/05/07 08:06:17;;;;;;;10.13;6.22;;;;;;;16.85;57.63;99233.09;4454694;32;34602;-82
2021/05/07 08:08:49;;;;;;;9.30;5.55;;;;;;;16.93;56.79;99236.31;4453491;32;33608;-82
2021/05/07 08:11:16;;;;;;;8.43;4.55;;;;;;;16.79;56.75;99230.69;4454334;32;33852;-85
2021/05/07 08:13:46;;;;;;;6.62;4.57;;;;;;;16.96;56.31;99232.75;4453388;32;34378;-84
2021/05/07 08:16:14;;;;;;;9.15;5.32;;;;;;;17.21;54.97;99224.88;4437705;32;33492;-84
2021/05/07 08:18:42;;;;;;;11.40;5.20;;;;;;;17.39;53.99;99225.03;4427188;32;33167;-84
2021/05/07 08:21:09;;;;;;;9.32;4.70;;;;;;;17.30;55.23;99227.16;4441557;32;33809;-84
2021/05/07 08:23:37;;;;;;;11.68;5.20;;;;;;;17.35;55.04;99233.09;4441527;32;35827;-84
2021/05/07 08:26:04;;;;;;;8.15;5.22;;;;;;;17.23;54.70;99223.03;4441728;32;34752;-83
2021/05/07 08:28:34;;;;;;;15.77;5.32;;;;;;;17.19;55.91;99222.25;4457164;32;33140;-84
2021/05/07 08:31:02;;;;;;;8.90;4.97;;;;;;;17.37;54.45;99226.88;4441557;32;33841;-83
2021/05/07 08:33:29;;;;;;;8.40;4.43;;;;;;;17.18;55.49;99230.22;4428928;32;35265;-83
2021/05/07 08:35:57;;;;;;;5.72;4.30;;;;;;;17.06;55.06;99231.50;4454971;32;34120;-83
2021/05/07 08:38:25;;;;;;;11.57;4.75;;;;;;;17.03;55.36;99234.25;4455038;32;34146;-83
2021/05/07 08:40:52;;;;;;;6.22;4.60;;;;;;;17.22;54.61;99231.81;4454816;32;33839;-83
2021/05/07 08:43:21;;;;;;;9.40;4.68;;;;;;;17.33;53.89;99229.69;4441045;32;34582;-82
2021/05/07 08:45:50;;;;;;;9.88;4.65;;;;;;;17.42;55.22;99229.34;4441508;32;34060;-82
2021/05/07 08:48:19;;;;;;;5.65;4.05;;;;;;;17.40;55.27;99232.00;4440887;32;33432;-82
2021/05/07 08:50:50;;;;;;;7.78;4.30;;;;;;;17.41;53.91;99228.47;4415493;32;34194;-82
2021/05/07 08:53:19;;;;;;;7.60;3.78;;;;;;;17.56;53.67;99232.34;4428032;32;33994;-82
2021/05/07 08:55:46;;;;;;;7.07;3.72;;;;;;;17.51;54.62;99234.25;4428372;32;34100;-82
2021/05/07 08:58:16;;;;;;;8.38;3.62;;;;;;;17.32;55.15;99228.81;4441109;32;33504;-83
2021/05/07 09:00:45;;;;;;;6.03;3.75;;;;;;;17.57;54.32;99236.66;4464143;32;33720;-82
2021/05/07 09:03:15;;;;;;;8.63;4.72;;;;;;;17.78;53.60;99237.66;4470598;32;35651;-82
2021/05/07 09:05:46;;;;;;;7.07;4.60;;;;;;;17.73;54.19;99232.56;4457243;32;33958;-82
2021/05/07 09:08:14;;;;;;;9.10;4.07;;;;;;;17.64;54.61;99240.78;4470809;32;33383;-82
2021/05/07 09:10:43;;;;;;;5.20;4.10;;;;;;;17.57;54.79;99244.56;4456682;32;33674;-82
2021/05/07 09:13:13;;;;;;;7.40;4.18;;;;;;;17.48;55.45;99244.88;4456537;32;34249;-82
2021/05/07 09:15:43;;;;;;;8.65;5.75;;;;;;;17.65;54.77;99247.78;4443439;32;34085;-82
2021/05/07 09:18:15;;;;;;;9.80;5.50;;;;;;;17.84;53.59;99253.19;4470184;32;34660;-82
2021/05/07 09:20:43;;;;;;;;;;;;;;;17.78;54.28;99262.16;4443929;32;33897;-82
2021/05/07 09:23:12;;;;;;;9.13;5.32;;;;;;;17.75;54.34;99249.16;4456192;32;34697;-81
2021/05/07 09:25:45;;;;;;;10.13;5.55;;;;;;;17.83;54.31;99241.81;4455832;32;34613;-82
2021/05/07 09:28:15;;;;;;;10.57;6.47;;;;;;;17.75;53.68;99253.53;4443735;32;34556;-83
2021/05/07 09:30:45;;;;;;;9.02;6.18;;;;;;;17.63;54.46;99261.87;4443234;32;34103;-82
2021/05/07 09:33:14;;;;;;;11.12;6.72;;;;;;;17.56;54.79;99253.37;4456230;32;34484;-83
2021/05/07 09:35:42;;;;;;;13.25;8.15;;;;;;;17.51;55.18;99247.41;4456293;32;34379;-83
2021/05/07 09:38:13;;;;;;;11.23;6.62;;;;;;;17.58;55.75;99256.81;4470544;32;34085;-83
2021/05/07 09:40:41;;;;;;;8.60;6.47;;;;;;;17.59;56.09;99255.88;4455371;32;33683;-82
2021/05/07 09:43:20;;;;;;;9.52;5.97;;;;;;;17.43;57.30;99241.53;4443377;32;34915;-82
2021/05/07 09:45:56;;;;;;;9.55;6.18;;;;;;;17.73;56.37;99239.59;4445530;32;34392;-83
2021/05/07 09:48:26;;;;;;;11.60;6.97;;;;;;;17.64;56.91;99240.78;4456690;32;33548;-82
2021/05/07 09:50:57;;;;;;;9.60;5.68;;;;;;;17.66;56.69;99223.19;4456749;32;34011;-83
2021/05/07 09:53:30;;;;;;;7.70;5.70;;;;;;;17.57;56.68;99215.63;4470351;32;34551;-83
2021/05/07 09:56:01;;;;;;;9.90;5.78;;;;;;;17.54;56.96;99197.38;4443682;32;33929;-84
2021/05/07 09:58:29;;;;;;;11.93;6.95;;;;;;;17.57;56.42;99205.12;4456350;32;34045;-84
2021/05/07 10:00:57;;;;;;;9.82;6.25;;;;;;;17.50;56.74;99217.59;4445460;32;34020;-83
2021/05/07 10:03:25;;;;;;;8.23;6.35;;;;;;;17.36;57.51;99211.16;4455239;32;34636;-83
2021/05/07 10:05:52;;;;;;;10.15;6.62;;;;;;;17.07;58.37;99212.19;4442467;32;34239;-82
2021/05/07 10:08:23;;;;;;;10.05;6.62;;;;;;;17.22;58.94;99218.69;4439960;32;33858;-82
2021/05/07 10:11:03;;;;;;;8.88;6.50;;;;;;;17.15;59.62;99214.56;4428264;32;33760;-82
2021/05/07 10:13:37;;;;;;;11.57;7.55;;;;;;;16.91;60.76;99227.66;4439721;32;34480;-82
2021/05/07 10:16:28;;;;;;;7.60;5.30;;;;;;;17.06;60.74;99233.28;4441901;32;34389;-82
2021/05/07 10:19:05;;;;;;;8.70;6.30;;;;;;;17.06;59.79;99238.53;4438952;32;34065;-83
2021/05/07 10:21:45;;;;;;;8.57;5.22;;;;;;;17.13;60.13;99242.66;4452858;32;34614;-83
2021/05/07 10:24:37;;;;;;;7.30;4.47;;;;;;;17.20;59.00;99239.75;4439460;32;34408;-82
2021/05/07 10:27:43;;;;;;;7.25;4.97;;;;;;;17.52;57.61;99234.22;4411342;32;35700;-83
2021/05/07 10:30:21;;;;;;;5.03;3.80;;;;;;;16.89;59.29;99244.38;4426249;32;34083;-83
2021/05/07 10:33:03;;;;;;;6.82;4.22;;;;;;;17.30;58.33;99235.03;4426593;32;33761;-82
2021/05/07 10:35:39;;;;;;;7.50;3.90;;;;;;;17.33;58.11;99230.50;4439073;32;35490;-83
2021/05/07 10:38:12;;;;;;;5.00;3.78;;;;;;;17.45;57.72;99227.44;4426720;32;34437;-83
2021/05/07 10:40:41;;;;;;;5.62;3.87;;;;;;;17.41;57.63;99232.88;4440715;32;33462;-82
2021/05/07 10:43:09;;;;;;;5.00;2.70;;;;;;;17.01;59.11;99249.22;4441574;32;33803;-83
2021/05/07 10:45:52;;;;;;;8.43;3.67;;;;;;;17.25;58.71;99248.34;4455925;32;35828;-82
2021/05/07 10:48:26;;;;;;;5.45;3.20;;;;;;;17.34;57.70;99255.91;4442133;32;34742;-82
2021/05/07 10:51:01;;;;;;;5.80;3.97;;;;;;;17.44;56.81;99259.91;4442504;32;33341;-82
2021/05/07 10:53:35;;;;;;;6.47;4.28;;;;;;;17.20;57.60;99254.66;4442296;32;33834;-83
2021/05/07 10:56:23;;;;;;;6.45;3.67;;;;;;;17.00;58.47;99265.03;4456221;32;35365;-83
2021/05/07 10:58:52;;;;;;;6.95;4.03;;;;;;;16.97;58.21;99268.63;4429611;32;33941;-83
2021/05/07 11:01:27;;;;;;;6.00;3.78;;;;;;;16.97;58.74;99273.88;4456996;32;34073;-84
2021/05/07 11:04:04;;;;;;;6.53;4.20;;;;;;;17.02;58.80;99284.22;4465800;32;33789;-84
2021/05/07 11:06:41;;;;;;;6.25;3.70;;;;;;;16.85;60.11;99292.66;4444707;32;33985;-83
2021/05/07 11:09:17;;;;;;;11.00;4.60;;;;;;;16.71;59.69;99300.97;4471663;32;35263;-82
2021/05/07 11:11:45;;;;;;;9.85;4.12;;;;;;;16.49;61.26;99302.56;4457599;32;33363;-84
2021/05/07 11:14:24;;;;;;;9.75;4.57;;;;;;;16.20;62.42;99305.22;4445067;32;33841;-84
2021/05/07 11:16:52;;;;;;;6.93;4.25;;;;;;;16.34;62.18;99291.69;4444701;32;33514;-83
2021/05/07 11:19:30;;;;;;;8.02;3.70;;;;;;;16.52;62.23;99284.09;4445073;32;34232;-85
2021/05/07 11:22:01;;;;;;;8.70;4.30;;;;;;;16.51;62.53;99274.53;4471426;32;33911;-84
2021/05/07 11:24:40;;;;;;;9.13;4.80;;;;;;;16.53;62.11;99254.34;4444026;32;33835;-84
2021/05/07 11:27:32;;;;;;;10.00;4.47;;;;;;;16.53;62.68;99262.22;4443332;32;33529;-82
2021/05/07 11:29:59;;;;;;;8.32;3.90;;;;;;;16.27;64.33;99276.16;4445784;32;34317;-84
2021/05/07 11:32:27;;;;;;;5.35;3.58;;;;;;;16.46;62.68;99275.53;4470612;32;34042;-84
2021/05/07 11:34:55;;;;;;;8.20;4.12;;;;;;;16.56;62.58;99274.38;4456667;32;33881;-84
2021/05/07 11:37:24;;;;;;;7.72;4.50;;;;;;;16.36;63.06;99255.75;4470853;32;34467;-84
2021/05/07 11:40:08;;;;;;;8.02;4.40;;;;;;;16.34;63.63;99245.31;4448635;32;34576;-85
2021/05/07 11:42:40;;;;;;;5.85;3.92;;;;;;;16.74;nan;99250.12;4458702;32;33166;-84
2021/05/07 11:45:10;;;;;;;9.18;4.40;;;;;;;16.64;62.76;99259.25;4450038;32;35065;-84
2021/05/07 11:47:42;;;;;;;6.07;3.28;;;;;;;16.58;63.14;99262.94;4459316;32;34095;-86
2021/05/07 11:50:15;;;;;;;6.47;3.62;;;;;;;16.70;62.03;99275.66;4472492;32;35312;-84